TimeCDT,TemperatureF,Dew PointF,Humidity,Sea Level PressureIn,VisibilityMPH,Wind Direction,Wind SpeedMPH,Gust SpeedMPH,PrecipitationIn,Events,Conditions,WindDirDegrees,DateUTC
12:54 AM,73.0,66.0,79,29.81,10.0,WSW,13.8,-,N/A,,Clear,240,2013-05-16 05:54:00
1:54 AM,72.0,64.0,76,29.84,10.0,West,6.9,-,N/A,,Clear,260,2013-05-16 06:54:00
2:54 AM,71.1,64.0,78,29.85,10.0,West,10.4,-,N/A,,Clear,270,2013-05-16 07:54:00
3:54 AM,68.0,64.0,87,29.84,10.0,NNW,6.9,-,N/A,,Clear,330,2013-05-16 08:54:00
4:54 AM,66.9,55.0,66,29.86,10.0,North,5.8,-,N/A,,Clear,350,2013-05-16 09:54:00
5:54 AM,66.0,54.0,65,29.87,10.0,NW,3.5,-,N/A,,Clear,320,2013-05-16 10:54:00
6:54 AM,66.9,57.9,73,29.89,10.0,WNW,3.5,-,N/A,,Mostly Cloudy,290,2013-05-16 11:54:00
7:54 AM,70.0,57.9,65,29.91,10.0,West,3.5,-,N/A,,Partly Cloudy,270,2013-05-16 12:54:00
8:54 AM,72.0,57.9,61,29.93,10.0,West,5.8,-,N/A,,Mostly Cloudy,280,2013-05-16 13:54:00
9:25 AM,66.2,57.2,73,29.95,3.0,Calm,Calm,-,0.07,Rain,Light Rain,0,2013-05-16 14:25:00
9:32 AM,66.2,57.2,73,29.95,9.0,NE,3.5,-,0.08,Rain,Light Rain,50,2013-05-16 14:32:00
9:54 AM,64.9,62.1,90,29.92,10.0,NNE,6.9,-,0.11,Rain,Light Rain,30,2013-05-16 14:54:00
10:54 AM,72.0,62.1,71,29.93,10.0,Calm,Calm,-,0.00,,Clear,0,2013-05-16 15:54:00
11:54 AM,75.9,59.0,56,29.93,10.0,South,5.8,-,N/A,,Mostly Cloudy,170,2013-05-16 16:54:00
12:54 PM,78.1,61.0,56,29.93,10.0,ESE,3.5,-,N/A,,Overcast,110,2013-05-16 17:54:00
1:54 PM,79.0,66.0,64,29.92,10.0,SW,17.3,21.9,N/A,,Scattered Clouds,220,2013-05-16 18:54:00
2:54 PM,78.1,63.0,60,29.90,10.0,SW,11.5,-,N/A,,Clear,220,2013-05-16 19:54:00
3:54 PM,79.0,61.0,54,29.88,10.0,South,4.6,-,N/A,,Clear,180,2013-05-16 20:54:00
5:54 PM,77.0,64.0,64,29.88,10.0,SSW,13.8,-,N/A,,Clear,200,2013-05-16 22:54:00
6:54 PM,75.9,62.1,62,29.89,10.0,SW,12.7,-,N/A,,Clear,220,2013-05-16 23:54:00
7:54 PM,73.9,60.1,62,29.89,10.0,SSW,9.2,-,N/A,,Clear,210,2013-05-17 00:54:00
8:54 PM,70.0,61.0,73,29.90,10.0,SSW,8.1,-,N/A,,Scattered Clouds,210,2013-05-17 01:54:00
9:54 PM,69.1,59.0,70,29.94,10.0,South,8.1,-,N/A,,Clear,190,2013-05-17 02:54:00
10:54 PM,64.0,60.1,87,29.95,10.0,Calm,Calm,-,N/A,,Clear,0,2013-05-17 03:54:00
11:54 PM,60.1,57.9,93,29.96,10.0,East,3.5,-,N/A,,Clear,80,2013-05-17 04:54:00